Carroll, Iowa
Current Conditions -  °F | °C
As of 11:55 PM on Wednesday 22 Oct 2014 (Local Time) from KCIN Reporting Station
Overcast Overcast  
Wind Chill: 55°   Ceiling: 10000
Heat Index: 55°   Visibility: 10mi
Dew Point: 55°   Wind: 10mph
Humidity: 100%   Direction: 170°S
Pressure: 30.07"   Gusts: NA
Location:  42.07°N, 94.87°W
Report Text: KCIN 230455Z AUTO 17009KT 10SM FEW034 SCT070 OVC100 13/13 A3007 RMK AO2 P0006
Loading
Personal Weather Stations






























Interactive Weather Map New forecast layout! Learn more

10-Day Weather Forecast

Advertisements
Track Severe Weather on mobile